createdAt,value
2022-09-24T00:00:01.273Z,99.90
2022-09-24T00:02:30.274Z,99.90
2022-09-24T00:04:59.243Z,99.90
2022-09-24T00:07:28.202Z,99.90
2022-09-24T00:09:57.148Z,99.90
2022-09-24T00:12:26.998Z,99.90
2022-09-24T00:14:55.932Z,99.90
2022-09-24T00:17:24.778Z,99.90
2022-09-24T00:19:53.693Z,99.90
2022-09-24T00:22:22.628Z,99.90
2022-09-24T00:25:09.848Z,99.90
2022-09-24T00:27:38.709Z,99.90
2022-09-24T00:30:08.084Z,99.90
2022-09-24T00:32:37.001Z,99.90
2022-09-24T00:35:06.156Z,99.90
2022-09-24T00:37:35.013Z,99.90
2022-09-24T00:40:04.191Z,99.90
2022-09-24T00:42:33.756Z,99.90
2022-09-24T00:45:05.724Z,99.90
2022-09-24T00:47:45.959Z,99.90
2022-09-24T00:50:17.367Z,99.90
2022-09-24T00:53:11.532Z,99.90
2022-09-24T00:55:45.300Z,99.90
2022-09-24T00:58:15.595Z,99.90
2022-09-24T01:00:45.893Z,99.90
2022-09-24T01:03:20.728Z,99.90
2022-09-24T01:05:49.704Z,99.90
2022-09-24T01:08:20.690Z,99.90
2022-09-24T01:11:19.131Z,99.90
2022-09-24T01:14:00.515Z,99.90
2022-09-24T01:17:03.012Z,99.90
2022-09-24T01:19:59.670Z,99.90
2022-09-24T01:23:06.031Z,99.90
2022-09-24T01:25:59.541Z,99.90
2022-09-24T01:29:06.730Z,99.90
2022-09-24T01:31:45.599Z,99.90
2022-09-24T01:34:20.823Z,99.90
2022-09-24T01:36:51.187Z,99.90
2022-09-24T01:39:22.156Z,99.90
2022-09-24T01:41:53.166Z,99.40
2022-09-24T01:44:22.563Z,99.00
2022-09-24T01:46:51.619Z,98.80
2022-09-24T01:49:20.582Z,98.50
2022-09-24T01:51:53.767Z,98.20
2022-09-24T01:54:34.155Z,97.70
2022-09-24T01:57:26.389Z,97.40
2022-09-24T02:00:01.224Z,97.10
2022-09-24T02:02:56.137Z,97.20
2022-09-24T02:05:46.483Z,96.90
2022-09-24T02:08:26.159Z,96.90
2022-09-24T02:11:17.156Z,96.80
2022-09-24T02:13:52.356Z,96.40
2022-09-24T02:16:25.933Z,96.40
2022-09-24T02:18:58.698Z,96.70
2022-09-24T02:21:28.691Z,96.60
2022-09-24T02:24:06.792Z,96.60
2022-09-24T02:26:35.856Z,96.50
2022-09-24T02:29:05.058Z,96.10
2022-09-24T02:31:48.729Z,96.10
2022-09-24T02:34:32.966Z,95.50
2022-09-24T02:37:06.499Z,95.50
2022-09-24T02:39:36.106Z,95.40
2022-09-24T02:42:07.233Z,95.50
2022-09-24T02:44:40.380Z,95.50
2022-09-24T02:47:09.774Z,94.90
2022-09-24T02:49:38.726Z,95.20
2022-09-24T02:52:07.873Z,95.30
2022-09-24T02:54:36.763Z,95.30
2022-09-24T02:57:05.708Z,95.60
2022-09-24T02:59:34.596Z,95.00
2022-09-24T03:02:03.640Z,94.30
2022-09-24T03:04:33.023Z,94.70
2022-09-24T03:07:02.064Z,94.90
2022-09-24T03:09:31.401Z,94.70
2022-09-24T03:12:02.034Z,94.40
2022-09-24T03:14:31.031Z,93.90
2022-09-24T03:16:59.880Z,94.20
2022-09-24T03:19:28.711Z,94.30
2022-09-24T03:21:57.812Z,94.10
2022-09-24T03:24:26.685Z,94.00
2022-09-24T03:26:55.556Z,93.70
2022-09-24T03:29:44.202Z,92.80
2022-09-24T03:32:13.125Z,93.10
2022-09-24T03:34:42.032Z,92.50
2022-09-24T03:37:10.965Z,92.50
2022-09-24T03:39:39.887Z,92.30
2022-09-24T03:42:08.850Z,92.30
2022-09-24T03:44:37.693Z,92.80
2022-09-24T03:47:06.661Z,93.00
2022-09-24T03:49:35.499Z,93.00
2022-09-24T03:52:04.430Z,92.90
2022-09-24T03:54:33.631Z,92.40
2022-09-24T03:57:02.569Z,92.20
2022-09-24T03:59:31.537Z,92.10
2022-09-24T04:02:00.499Z,92.20
2022-09-24T04:04:29.430Z,92.30
2022-09-24T04:06:58.581Z,92.20
2022-09-24T04:09:27.866Z,91.40
2022-09-24T04:11:57.403Z,91.50
2022-09-24T04:14:26.325Z,91.60
2022-09-24T04:16:55.288Z,91.20
2022-09-24T04:19:24.161Z,88.60
2022-09-24T04:21:53.046Z,91.10
2022-09-24T04:24:22.356Z,90.80
2022-09-24T04:26:51.665Z,88.70
2022-09-24T04:29:20.556Z,86.70
2022-09-24T04:31:49.426Z,87.00
2022-09-24T04:34:19.139Z,88.80
2022-09-24T04:36:48.108Z,87.80
2022-09-24T04:39:17.111Z,90.30
2022-09-24T04:41:48.269Z,90.70
2022-09-24T04:44:17.273Z,90.70
2022-09-24T04:46:46.284Z,90.70
2022-09-24T04:49:15.415Z,90.60
2022-09-24T04:51:44.406Z,90.80
2022-09-24T04:54:13.380Z,90.90
2022-09-24T04:56:42.254Z,90.70
2022-09-24T04:59:11.195Z,90.30
2022-09-24T05:01:40.144Z,88.90
2022-09-24T05:04:09.756Z,90.60
2022-09-24T05:06:38.631Z,90.60
2022-09-24T05:09:12.303Z,90.30
2022-09-24T05:11:41.625Z,88.20
2022-09-24T05:14:10.473Z,88.20
2022-09-24T05:16:39.467Z,89.30
2022-09-24T05:19:08.545Z,87.60
2022-09-24T05:21:37.476Z,87.80
2022-09-24T05:24:06.462Z,88.10
2022-09-24T05:26:53.963Z,86.40
2022-09-24T05:29:22.855Z,85.80
2022-09-24T05:31:51.827Z,87.30
2022-09-24T05:34:20.839Z,87.30
2022-09-24T05:36:49.724Z,87.50
2022-09-24T05:39:18.568Z,88.30
2022-09-24T05:41:47.471Z,88.70
2022-09-24T05:44:16.387Z,88.60
2022-09-24T05:46:45.655Z,90.00
2022-09-24T05:49:14.549Z,90.20
2022-09-24T05:51:43.730Z,90.10
2022-09-24T05:54:13.303Z,90.20
2022-09-24T05:56:42.151Z,90.40
2022-09-24T05:59:11.853Z,90.40
2022-09-24T06:01:41.055Z,90.20
2022-09-24T06:04:12.433Z,90.60
2022-09-24T06:06:41.488Z,90.70
2022-09-24T06:09:11.279Z,90.50
2022-09-24T06:11:41.125Z,90.40
2022-09-24T06:14:10.904Z,90.50
2022-09-24T06:16:39.818Z,90.50
2022-09-24T06:19:08.897Z,90.50
2022-09-24T06:21:37.863Z,90.40
2022-09-24T06:24:06.899Z,90.30
2022-09-24T06:26:35.823Z,90.30
2022-09-24T06:29:08.320Z,89.90
2022-09-24T06:31:37.389Z,87.30
2022-09-24T06:34:06.397Z,88.40
2022-09-24T06:36:35.995Z,88.80
2022-09-24T06:39:05.023Z,88.90
2022-09-24T06:41:33.941Z,89.60
2022-09-24T06:44:03.060Z,89.40
2022-09-24T06:46:32.198Z,89.60
2022-09-24T06:49:01.139Z,89.20
2022-09-24T06:51:30.075Z,89.00
2022-09-24T06:53:59.017Z,88.50
2022-09-24T06:56:27.978Z,88.50
2022-09-24T06:58:56.980Z,85.00
2022-09-24T07:01:26.024Z,84.00
2022-09-24T07:03:55.020Z,86.00
2022-09-24T07:06:24.039Z,87.30
2022-09-24T07:08:53.861Z,85.20
2022-09-24T07:11:22.767Z,87.20
2022-09-24T07:13:53.332Z,87.70
2022-09-24T07:16:22.336Z,87.20
2022-09-24T07:18:51.262Z,87.10
2022-09-24T07:21:20.222Z,85.90
2022-09-24T07:23:49.136Z,86.60
2022-09-24T07:26:18.062Z,87.00
2022-09-24T07:28:46.976Z,87.00
2022-09-24T07:31:16.016Z,87.00
2022-09-24T07:33:44.936Z,85.90
2022-09-24T07:36:13.794Z,86.50
2022-09-24T07:38:43.860Z,84.50
2022-09-24T07:41:13.047Z,84.70
2022-09-24T07:43:41.955Z,85.20
2022-09-24T07:46:10.890Z,85.60
2022-09-24T07:48:39.893Z,85.10
2022-09-24T07:51:12.432Z,83.60
2022-09-24T07:53:41.307Z,83.50
2022-09-24T07:56:10.219Z,84.10
2022-09-24T07:58:39.188Z,84.40
2022-09-24T08:01:08.272Z,84.90
2022-09-24T08:03:37.760Z,85.70
2022-09-24T08:06:07.212Z,86.00
2022-09-24T08:08:36.449Z,86.20
2022-09-24T08:11:07.098Z,85.60
2022-09-24T08:13:36.425Z,86.00
2022-09-24T08:16:06.036Z,85.80
2022-09-24T08:18:35.356Z,85.60
2022-09-24T08:21:10.586Z,85.70
2022-09-24T08:23:41.128Z,85.70
2022-09-24T08:26:10.947Z,85.70
2022-09-24T08:28:43.148Z,85.80
2022-09-24T08:31:14.624Z,85.80
2022-09-24T08:33:44.862Z,85.80
2022-09-24T08:36:13.744Z,85.90
2022-09-24T08:38:42.636Z,86.20
2022-09-24T08:41:14.287Z,85.90
2022-09-24T08:44:01.777Z,86.80
2022-09-24T08:46:54.690Z,88.90
2022-09-24T08:49:49.494Z,89.10
2022-09-24T08:52:27.594Z,90.30
2022-09-24T08:54:58.208Z,90.60
2022-09-24T08:57:29.088Z,90.90
2022-09-24T08:59:58.021Z,91.40
2022-09-24T09:02:43.728Z,91.70
2022-09-24T09:05:20.226Z,92.10
2022-09-24T09:07:55.148Z,92.50
2022-09-24T09:10:40.859Z,92.40
2022-09-24T09:13:12.559Z,92.60
2022-09-24T09:15:49.844Z,92.80
2022-09-24T09:18:40.707Z,92.90
2022-09-24T09:21:44.032Z,93.20
2022-09-24T09:24:25.427Z,93.40
2022-09-24T09:26:57.572Z,93.20
2022-09-24T09:29:29.140Z,93.20
2022-09-24T09:32:18.225Z,93.30
2022-09-24T09:35:19.967Z,93.40
2022-09-24T09:37:53.653Z,93.60
2022-09-24T09:40:30.696Z,93.50
2022-09-24T09:43:19.695Z,93.50
2022-09-24T09:46:08.693Z,93.60
2022-09-24T09:48:55.468Z,93.60
2022-09-24T09:51:27.886Z,93.70
2022-09-24T09:54:02.326Z,93.60
2022-09-24T09:56:35.442Z,93.60
2022-09-24T09:59:13.189Z,93.50
2022-09-24T10:01:44.527Z,93.70
2022-09-24T10:04:44.525Z,93.50
2022-09-24T10:07:18.378Z,93.80
2022-09-24T10:09:47.863Z,93.70
2022-09-24T10:12:25.463Z,94.40
2022-09-24T10:15:05.559Z,93.90
2022-09-24T10:17:39.642Z,93.80
2022-09-24T10:20:19.629Z,93.70
2022-09-24T10:23:00.035Z,93.80
2022-09-24T10:25:30.954Z,93.90
2022-09-24T10:28:21.569Z,93.90
2022-09-24T10:31:00.577Z,93.80
2022-09-24T10:33:37.523Z,93.90
2022-09-24T10:36:36.320Z,94.00
2022-09-24T10:39:15.679Z,94.00
2022-09-24T10:41:55.822Z,94.10
2022-09-24T10:44:26.379Z,94.10
2022-09-24T10:47:20.520Z,94.00
2022-09-24T10:50:34.145Z,94.30
2022-09-24T10:53:10.085Z,94.50
2022-09-24T10:55:51.047Z,94.20
2022-09-24T10:58:23.922Z,94.30
2022-09-24T11:01:20.697Z,94.30
2022-09-24T11:04:35.116Z,94.60
2022-09-24T11:07:27.036Z,94.90
2022-09-24T11:10:38.152Z,94.70
2022-09-24T11:13:24.657Z,95.30
2022-09-24T11:15:59.911Z,95.30
2022-09-24T11:18:41.082Z,94.90
2022-09-24T11:21:18.315Z,94.70
2022-09-24T11:24:05.402Z,94.70
2022-09-24T11:27:11.066Z,94.70
2022-09-24T11:30:01.058Z,94.50
2022-09-24T11:32:39.201Z,94.70
2022-09-24T11:35:30.055Z,94.50
2022-09-24T11:38:08.884Z,94.50
2022-09-24T11:40:56.898Z,94.40
2022-09-24T11:43:34.981Z,94.40
2022-09-24T11:46:25.290Z,94.40
2022-09-24T11:48:57.332Z,94.50
2022-09-24T11:51:44.960Z,94.40
2022-09-24T11:54:23.052Z,94.40
2022-09-24T11:56:58.814Z,94.40
2022-09-24T11:59:27.887Z,94.20
2022-09-24T12:02:11.963Z,95.00
2022-09-24T12:04:48.350Z,95.10
2022-09-24T12:07:35.989Z,94.80
2022-09-24T12:10:30.945Z,95.00
2022-09-24T12:13:13.801Z,95.10
2022-09-24T12:15:54.164Z,95.70
2022-09-24T12:18:30.614Z,95.60
2022-09-24T12:21:07.876Z,95.60
2022-09-24T12:23:43.007Z,95.50
2022-09-24T12:26:17.481Z,95.70
2022-09-24T12:29:27.489Z,96.10
2022-09-24T12:32:33.913Z,96.10
2022-09-24T12:35:19.989Z,96.50
2022-09-24T12:37:52.901Z,97.00
2022-09-24T12:40:40.605Z,96.80
2022-09-24T12:43:27.296Z,97.40
2022-09-24T12:46:03.074Z,97.30
2022-09-24T12:48:37.517Z,97.70
2022-09-24T12:51:12.782Z,98.00
2022-09-24T12:53:44.468Z,98.40
2022-09-24T12:56:13.802Z,98.30
2022-09-24T12:58:44.893Z,98.30
2022-09-24T13:01:26.109Z,98.80
2022-09-24T13:04:16.372Z,99.60
2022-09-24T13:06:49.284Z,99.70
2022-09-24T13:09:40.975Z,99.60
2022-09-24T13:12:19.300Z,99.40
2022-09-24T13:15:09.576Z,99.90
2022-09-24T13:17:41.948Z,99.80
2022-09-24T13:20:29.493Z,99.80
2022-09-24T13:23:14.731Z,99.40
2022-09-24T13:25:55.289Z,99.70
2022-09-24T13:28:38.192Z,99.70
2022-09-24T13:31:41.414Z,99.60
2022-09-24T13:34:15.821Z,99.90
2022-09-24T13:37:03.304Z,99.70
2022-09-24T13:39:54.515Z,99.50
2022-09-24T13:42:48.006Z,99.90
2022-09-24T13:45:23.618Z,99.70
2022-09-24T13:48:06.382Z,99.50
2022-09-24T13:50:41.643Z,99.40
2022-09-24T13:53:35.584Z,99.40
2022-09-24T13:56:14.454Z,99.80
2022-09-24T13:58:45.033Z,99.40
2022-09-24T14:01:16.109Z,99.40
2022-09-24T14:03:57.753Z,99.40
2022-09-24T14:06:51.876Z,99.40
2022-09-24T14:09:37.867Z,99.80
2022-09-24T14:12:18.244Z,99.60
2022-09-24T14:14:53.342Z,99.50
2022-09-24T14:17:22.396Z,99.10
2022-09-24T14:19:59.207Z,99.10
2022-09-24T14:22:33.145Z,99.30
2022-09-24T14:25:07.882Z,99.20
2022-09-24T14:27:41.241Z,99.90
2022-09-24T14:30:20.019Z,99.90
2022-09-24T14:33:02.813Z,99.90
2022-09-24T14:35:35.899Z,99.90
2022-09-24T14:38:37.105Z,99.90
2022-09-24T14:41:20.697Z,99.90
2022-09-24T14:43:54.778Z,99.90
2022-09-24T14:46:34.583Z,99.90
2022-09-24T14:49:27.164Z,99.90
2022-09-24T14:52:01.138Z,99.90
2022-09-24T14:54:36.699Z,99.90
2022-09-24T14:57:21.488Z,99.90
2022-09-24T14:59:50.591Z,99.90
2022-09-24T15:02:32.135Z,99.90
2022-09-24T15:05:06.471Z,99.90
2022-09-24T15:07:36.418Z,99.90
2022-09-24T15:10:07.342Z,99.90
2022-09-24T15:12:38.630Z,99.90
2022-09-24T15:15:30.317Z,99.90
2022-09-24T15:17:59.309Z,99.90
2022-09-24T15:20:28.280Z,99.90
2022-09-24T15:22:57.664Z,99.90
2022-09-24T15:25:26.831Z,99.90
2022-09-24T15:27:55.950Z,99.90
2022-09-24T15:30:25.510Z,99.90
2022-09-24T15:32:54.425Z,99.90
2022-09-24T15:35:23.311Z,99.90
2022-09-24T15:37:52.602Z,99.90
2022-09-24T15:40:26.972Z,99.90
2022-09-24T15:42:55.856Z,99.90
2022-09-24T15:45:26.451Z,99.90
2022-09-24T15:47:55.648Z,99.90
2022-09-24T15:50:25.399Z,99.90
2022-09-24T15:53:01.440Z,99.90
2022-09-24T15:55:32.394Z,99.90
2022-09-24T15:58:03.015Z,99.90
2022-09-24T16:00:31.852Z,99.90
2022-09-24T16:03:02.887Z,99.90
2022-09-24T16:05:31.777Z,99.90
2022-09-24T16:08:00.650Z,99.90
2022-09-24T16:10:29.560Z,99.90
2022-09-24T16:12:58.390Z,99.90
2022-09-24T16:15:27.304Z,99.90
2022-09-24T16:17:56.173Z,99.90
2022-09-24T16:20:25.009Z,99.90
2022-09-24T16:22:53.842Z,99.90
2022-09-24T16:25:22.790Z,99.90
2022-09-24T16:27:52.695Z,99.90
2022-09-24T16:30:21.694Z,99.90
2022-09-24T16:32:50.576Z,99.90
2022-09-24T16:35:20.196Z,99.90
2022-09-24T16:37:49.010Z,99.90
2022-09-24T16:40:17.932Z,99.90
2022-09-24T16:42:46.871Z,99.90
2022-09-24T16:45:15.809Z,99.90
2022-09-24T16:47:44.667Z,99.90
2022-09-24T16:50:14.059Z,99.90
2022-09-24T16:52:45.848Z,99.90
2022-09-24T16:55:14.758Z,99.90
2022-09-24T16:57:43.668Z,99.90
2022-09-24T17:00:16.114Z,99.90
2022-09-24T17:02:45.005Z,99.90
2022-09-24T17:05:13.913Z,99.90
2022-09-24T17:07:42.841Z,99.90
2022-09-24T17:10:16.812Z,99.90
2022-09-24T17:12:50.064Z,99.90
2022-09-24T17:15:21.639Z,99.90
2022-09-24T17:17:51.887Z,99.90
2022-09-24T17:20:21.301Z,99.90
2022-09-24T17:22:51.317Z,99.90
2022-09-24T17:25:20.402Z,99.90
2022-09-24T17:27:49.313Z,99.90
2022-09-24T17:30:18.258Z,99.90
2022-09-24T17:32:47.115Z,99.90
2022-09-24T17:35:16.002Z,99.90
2022-09-24T17:37:46.264Z,99.90
2022-09-24T17:40:22.950Z,99.90
2022-09-24T17:42:53.803Z,99.90
2022-09-24T17:45:23.495Z,99.90
2022-09-24T17:47:58.443Z,99.90
2022-09-24T17:50:27.579Z,99.90
2022-09-24T17:52:56.516Z,99.90
2022-09-24T17:55:25.436Z,99.90
2022-09-24T17:57:54.369Z,99.90
2022-09-24T18:00:23.247Z,99.90
2022-09-24T18:02:55.037Z,99.90
2022-09-24T18:05:23.922Z,99.90
2022-09-24T18:07:52.809Z,99.90
2022-09-24T18:10:21.967Z,99.90
2022-09-24T18:12:50.796Z,99.90
2022-09-24T18:15:19.602Z,99.90
2022-09-24T18:17:48.577Z,99.90
2022-09-24T18:20:17.543Z,99.90
2022-09-24T18:22:46.645Z,99.90
2022-09-24T18:25:15.639Z,99.90
2022-09-24T18:27:46.392Z,99.90
2022-09-24T18:30:16.735Z,99.90
2022-09-24T18:32:48.588Z,99.90
2022-09-24T18:35:17.581Z,99.90
2022-09-24T18:37:46.490Z,99.90
2022-09-24T18:40:15.462Z,99.90
2022-09-24T18:42:44.343Z,99.90
2022-09-24T18:45:13.529Z,99.90
2022-09-24T18:47:42.426Z,99.90
2022-09-24T18:50:11.639Z,99.90
2022-09-24T18:52:40.500Z,99.90
2022-09-24T18:55:10.329Z,99.90
2022-09-24T18:57:39.515Z,99.90
2022-09-24T19:00:28.988Z,99.90
2022-09-24T19:02:58.804Z,99.90
2022-09-24T19:05:28.081Z,99.90
2022-09-24T19:07:56.913Z,99.90
2022-09-24T19:10:25.807Z,99.90
2022-09-24T19:12:56.305Z,99.90
2022-09-24T19:15:26.312Z,99.90
2022-09-24T19:17:55.332Z,99.90
2022-09-24T19:20:24.176Z,99.90
2022-09-24T19:23:01.005Z,99.90
2022-09-24T19:25:34.533Z,99.90
2022-09-24T19:28:05.315Z,99.90
2022-09-24T19:30:44.425Z,99.90
2022-09-24T19:33:17.104Z,99.90
2022-09-24T19:36:05.632Z,99.90
2022-09-24T19:38:37.558Z,99.90
2022-09-24T19:41:17.370Z,99.90
2022-09-24T19:43:46.599Z,99.90
2022-09-24T19:46:18.025Z,99.90
2022-09-24T19:48:49.438Z,99.90
2022-09-24T19:51:26.987Z,99.90
2022-09-24T19:54:01.284Z,99.90
2022-09-24T19:56:31.071Z,99.90
2022-09-24T19:59:02.009Z,99.90
2022-09-24T20:01:33.420Z,99.90
2022-09-24T20:04:06.229Z,99.90
2022-09-24T20:06:37.090Z,99.90
2022-09-24T20:09:06.645Z,99.90
2022-09-24T20:11:35.583Z,99.90
2022-09-24T20:14:06.817Z,99.90
2022-09-24T20:16:35.701Z,99.90
2022-09-24T20:19:05.821Z,99.90
2022-09-24T20:21:35.687Z,99.90
2022-09-24T20:24:06.836Z,99.90
2022-09-24T20:26:54.882Z,99.90
2022-09-24T20:29:24.200Z,99.90
2022-09-24T20:31:56.513Z,99.90
2022-09-24T20:34:34.489Z,99.90
2022-09-24T20:37:06.984Z,99.90
2022-09-24T20:39:36.205Z,99.90
2022-09-24T20:42:07.061Z,99.90
2022-09-24T20:44:36.109Z,99.90
2022-09-24T20:47:05.261Z,99.90
2022-09-24T20:49:35.884Z,99.90
2022-09-24T20:52:06.707Z,99.90
2022-09-24T20:54:35.605Z,99.90
2022-09-24T20:57:04.553Z,99.90
2022-09-24T20:59:33.377Z,99.90
2022-09-24T21:02:02.422Z,99.90
2022-09-24T21:04:31.378Z,99.90
2022-09-24T21:07:00.293Z,99.90
2022-09-24T21:09:30.147Z,99.90
2022-09-24T21:11:59.040Z,99.90
2022-09-24T21:14:30.009Z,99.90
2022-09-24T21:16:59.002Z,99.90
2022-09-24T21:19:27.879Z,99.90
2022-09-24T21:21:56.827Z,99.90
2022-09-24T21:24:31.165Z,99.90
2022-09-24T21:27:00.609Z,99.90
2022-09-24T21:29:29.507Z,99.90
2022-09-24T21:31:58.474Z,99.90
2022-09-24T21:34:29.350Z,99.90
2022-09-24T21:36:58.331Z,99.90
2022-09-24T21:39:30.063Z,99.90
2022-09-24T21:42:00.456Z,99.90
2022-09-24T21:44:33.211Z,99.90
2022-09-24T21:47:02.903Z,99.90
2022-09-24T21:49:34.665Z,99.90
2022-09-24T21:52:06.085Z,99.90
2022-09-24T21:54:35.162Z,99.90
2022-09-24T21:57:04.419Z,99.90
2022-09-24T21:59:51.403Z,99.90
2022-09-24T22:02:21.286Z,99.90
2022-09-24T22:04:50.321Z,99.90
2022-09-24T22:07:19.365Z,99.90
2022-09-24T22:09:48.198Z,99.90
2022-09-24T22:12:18.212Z,99.90
2022-09-24T22:14:47.057Z,99.90
2022-09-24T22:17:16.024Z,99.90
2022-09-24T22:19:44.885Z,99.90
2022-09-24T22:22:13.693Z,99.90
2022-09-24T22:24:42.662Z,99.90
2022-09-24T22:27:11.511Z,99.90
2022-09-24T22:29:40.418Z,99.90
2022-09-24T22:32:09.479Z,99.90
2022-09-24T22:34:56.769Z,99.90
2022-09-24T22:37:25.742Z,99.90
2022-09-24T22:39:54.627Z,99.90
2022-09-24T22:42:23.590Z,99.90
2022-09-24T22:44:53.100Z,99.90
2022-09-24T22:47:21.996Z,99.90
2022-09-24T22:49:50.928Z,99.90
2022-09-24T22:52:19.890Z,99.90
2022-09-24T22:54:48.844Z,99.90
2022-09-24T22:57:17.894Z,99.90
2022-09-24T22:59:46.828Z,99.90
2022-09-24T23:02:15.781Z,99.90
2022-09-24T23:04:44.717Z,99.90
2022-09-24T23:07:17.561Z,99.90
2022-09-24T23:09:46.517Z,99.90
2022-09-24T23:12:16.278Z,99.90
2022-09-24T23:14:45.359Z,99.90
2022-09-24T23:17:14.423Z,99.90
2022-09-24T23:19:53.210Z,99.90
2022-09-24T23:22:23.793Z,99.90
2022-09-24T23:24:52.842Z,99.90
2022-09-24T23:27:21.994Z,99.90
2022-09-24T23:29:50.903Z,99.90
2022-09-24T23:32:19.973Z,99.90
2022-09-24T23:34:48.936Z,99.90
2022-09-24T23:37:17.838Z,99.90
2022-09-24T23:39:46.747Z,99.90
2022-09-24T23:42:15.594Z,99.90
2022-09-24T23:44:46.455Z,99.90
2022-09-24T23:47:15.318Z,99.90
2022-09-24T23:49:44.282Z,99.90
2022-09-24T23:52:13.210Z,99.90
2022-09-24T23:54:42.108Z,99.90
2022-09-24T23:57:12.405Z,99.90
2022-09-24T23:59:41.334Z,99.90
